createdAt,value
2023-05-20T00:03:35.959Z,101090.86
2023-05-20T00:06:04.652Z,101088.34
2023-05-20T00:08:32.733Z,101083.16
2023-05-20T00:11:01.082Z,101077.77
2023-05-20T00:13:29.470Z,101075.27
2023-05-20T00:15:57.564Z,101075.24
2023-05-20T00:18:25.798Z,101074.16
2023-05-20T00:20:53.930Z,101070.08
2023-05-20T00:23:22.423Z,101063.27
2023-05-20T00:25:51.163Z,101059.85
2023-05-20T00:28:19.239Z,101053.09
2023-05-20T00:30:47.391Z,101053.42
2023-05-20T00:33:16.240Z,101052.50
2023-05-20T00:35:44.869Z,101055.17
2023-05-20T00:38:13.097Z,101055.89
2023-05-20T00:40:41.507Z,101049.63
2023-05-20T00:43:10.008Z,101045.70
2023-05-20T00:45:38.827Z,101042.30
2023-05-20T00:48:07.754Z,101036.23
2023-05-20T00:50:36.775Z,101033.72
2023-05-20T00:53:06.390Z,101033.49
2023-05-20T00:55:35.687Z,101031.34
2023-05-20T00:58:04.377Z,101029.04
2023-05-20T01:00:32.837Z,101022.08
2023-05-20T01:03:01.354Z,101022.59
2023-05-20T01:05:29.827Z,101021.70
2023-05-20T01:07:58.184Z,101023.48
2023-05-20T01:10:29.302Z,101020.27
2023-05-20T01:13:01.914Z,101020.43
2023-05-20T01:15:32.079Z,101018.64
2023-05-20T01:18:03.613Z,101013.27
2023-05-20T01:20:33.410Z,101010.59
2023-05-20T01:23:02.064Z,101008.77
2023-05-20T01:25:30.381Z,101006.62
2023-05-20T01:27:58.868Z,100999.29
2023-05-20T01:30:33.353Z,100996.45
2023-05-20T01:33:11.005Z,100991.27
2023-05-20T01:35:41.572Z,100989.48
2023-05-20T01:38:10.075Z,100987.86
2023-05-20T01:40:39.522Z,100988.02
2023-05-20T01:43:08.470Z,100989.41
2023-05-20T01:45:36.910Z,100984.58
2023-05-20T01:48:05.828Z,100983.84
2023-05-20T01:50:34.133Z,100986.88
2023-05-20T01:53:02.243Z,100985.63
2023-05-20T01:55:30.629Z,100987.40
2023-05-20T01:57:58.856Z,100982.94
2023-05-20T02:00:27.038Z,100988.30
2023-05-20T02:02:55.586Z,100987.73
2023-05-20T02:05:24.252Z,100989.33
2023-05-20T02:07:52.640Z,100993.59
2023-05-20T02:10:21.157Z,100994.27
2023-05-20T02:12:49.682Z,100997.67
2023-05-20T02:15:18.363Z,100990.36
2023-05-20T02:17:47.528Z,100992.84
2023-05-20T02:20:15.789Z,100983.41
2023-05-20T02:22:43.965Z,100976.83
2023-05-20T02:25:12.684Z,100968.46
2023-05-20T02:27:41.076Z,100969.35
2023-05-20T02:30:09.645Z,100967.73
2023-05-20T02:32:37.907Z,100962.91
2023-05-20T02:35:06.443Z,100957.01
2023-05-20T02:37:34.724Z,100955.75
2023-05-20T02:40:03.076Z,100957.52
2023-05-20T02:42:31.380Z,100952.70
2023-05-20T02:44:59.535Z,100946.11
2023-05-20T02:47:27.933Z,100943.05
2023-05-20T02:49:56.576Z,100939.11
2023-05-20T02:52:24.728Z,100941.23
2023-05-20T02:54:53.217Z,100937.65
2023-05-20T02:57:21.624Z,100933.36
2023-05-20T02:59:49.904Z,100932.08
2023-05-20T03:02:18.293Z,100932.23
2023-05-20T03:04:47.270Z,100930.44
2023-05-20T03:07:15.636Z,100926.19
2023-05-20T03:09:44.024Z,100924.93
2023-05-20T03:12:12.574Z,100917.98
2023-05-20T03:14:40.862Z,100918.34
2023-05-20T03:17:10.071Z,100915.83
2023-05-20T03:19:38.214Z,100916.72
2023-05-20T03:22:06.505Z,100915.27
2023-05-20T03:24:35.139Z,100915.09
2023-05-20T03:27:03.268Z,100913.64
2023-05-20T03:29:31.576Z,100914.67
2023-05-20T03:31:59.941Z,100916.09
2023-05-20T03:34:28.408Z,100917.31
2023-05-20T03:36:56.749Z,100913.56
2023-05-20T03:39:24.966Z,100912.66
2023-05-20T03:41:53.197Z,100912.81
2023-05-20T03:44:21.426Z,100915.13
2023-05-20T03:46:49.776Z,100914.75
2023-05-20T03:49:19.900Z,100913.51
2023-05-20T03:51:48.656Z,100916.70
2023-05-20T03:54:16.896Z,100911.15
2023-05-20T03:56:45.162Z,100911.13
2023-05-20T03:59:13.354Z,100910.96
2023-05-20T04:01:41.632Z,100913.11
2023-05-20T04:04:10.901Z,100914.71
2023-05-20T04:06:39.310Z,100917.71
2023-05-20T04:09:07.739Z,100914.51
2023-05-20T04:11:36.196Z,100912.02
2023-05-20T04:14:04.458Z,100912.20
2023-05-20T04:16:33.234Z,100911.85
2023-05-20T04:19:01.664Z,100908.98
2023-05-20T04:21:30.132Z,100906.32
2023-05-20T04:23:59.078Z,100907.73
2023-05-20T04:26:27.828Z,100910.41
2023-05-20T04:28:56.446Z,100908.64
2023-05-20T04:31:25.903Z,100905.45
2023-05-20T04:33:54.887Z,100907.42
2023-05-20T04:36:23.335Z,100909.04
2023-05-20T04:38:51.712Z,100905.85
2023-05-20T04:41:19.908Z,100905.85
2023-05-20T04:43:48.059Z,100912.26
2023-05-20T04:46:17.168Z,100911.57
2023-05-20T04:48:45.371Z,100922.24
2023-05-20T04:51:13.721Z,100915.31
2023-05-20T04:53:43.166Z,100917.48
2023-05-20T04:56:12.534Z,100915.36
2023-05-20T04:58:40.753Z,100916.63
2023-05-20T05:01:09.235Z,100920.72
2023-05-20T05:03:37.512Z,100923.77
2023-05-20T05:06:05.953Z,100925.93
2023-05-20T05:08:34.124Z,100923.82
2023-05-20T05:11:05.237Z,100924.20
2023-05-20T05:13:33.964Z,100927.77
2023-05-20T05:16:03.473Z,100920.33
2023-05-20T05:18:31.750Z,100918.39
2023-05-20T05:21:02.847Z,100916.11
2023-05-20T05:23:32.244Z,100912.04
2023-05-20T05:26:00.750Z,100913.84
2023-05-20T05:28:29.469Z,100915.48
2023-05-20T05:30:57.661Z,100914.96
2023-05-20T05:33:26.394Z,100916.40
2023-05-20T05:35:54.892Z,100919.44
2023-05-20T05:38:23.287Z,100921.23
2023-05-20T05:40:51.708Z,100918.04
2023-05-20T05:43:20.047Z,100919.65
2023-05-20T05:45:48.224Z,100920.20
2023-05-20T05:48:16.454Z,100922.55
2023-05-20T05:50:46.613Z,100928.29
2023-05-20T05:53:14.753Z,100927.94
2023-05-20T05:55:42.950Z,100928.50
2023-05-20T05:58:11.473Z,100926.37
2023-05-20T06:00:39.669Z,100925.86
2023-05-20T06:03:08.089Z,100923.39
2023-05-20T06:05:36.659Z,100926.44
2023-05-20T06:08:05.666Z,100927.35
2023-05-20T06:10:34.291Z,100928.63
2023-05-20T06:13:02.445Z,100928.84
2023-05-20T06:15:30.681Z,100927.80
2023-05-20T06:17:59.125Z,100929.98
2023-05-20T06:20:27.647Z,100931.63
2023-05-20T06:22:56.356Z,100931.13
2023-05-20T06:25:25.358Z,100933.30
2023-05-20T06:27:54.672Z,100933.15
2023-05-20T06:30:23.040Z,100933.36
2023-05-20T06:32:51.329Z,100934.27
2023-05-20T06:35:20.172Z,100938.77
2023-05-20T06:37:49.166Z,100939.48
2023-05-20T06:40:19.152Z,100941.29
2023-05-20T06:42:47.672Z,100944.34
2023-05-20T06:45:16.769Z,100939.36
2023-05-20T06:47:45.845Z,100939.39
2023-05-20T06:50:14.033Z,100939.03
2023-05-20T06:52:42.149Z,100941.52
2023-05-20T06:55:10.655Z,100946.66
2023-05-20T06:57:39.371Z,100949.67
2023-05-20T07:00:09.154Z,100954.09
2023-05-20T07:02:37.428Z,100955.70
2023-05-20T07:05:06.107Z,100960.83
2023-05-20T07:07:34.252Z,100964.70
2023-05-20T07:10:02.442Z,100963.39
2023-05-20T07:12:30.627Z,100963.84
2023-05-20T07:14:58.837Z,100968.05
2023-05-20T07:17:27.552Z,100967.07
2023-05-20T07:19:56.656Z,100966.45
2023-05-20T07:22:25.033Z,100970.83
2023-05-20T07:24:53.214Z,100971.61
2023-05-20T07:27:22.698Z,100969.53
2023-05-20T07:29:51.456Z,100978.02
2023-05-20T07:32:20.758Z,100977.77
2023-05-20T07:34:49.062Z,100975.07
2023-05-20T07:37:17.222Z,100977.48
2023-05-20T07:39:45.932Z,100980.99
2023-05-20T07:42:16.667Z,100987.32
2023-05-20T07:44:45.556Z,100986.14
2023-05-20T07:47:14.264Z,100982.95
2023-05-20T07:49:42.678Z,100985.84
2023-05-20T07:52:11.634Z,100988.73
2023-05-20T07:54:39.730Z,100989.01
2023-05-20T07:57:08.151Z,100984.44
2023-05-20T07:59:36.291Z,100981.70
2023-05-20T08:02:05.072Z,100983.96
2023-05-20T08:04:33.559Z,100984.91
2023-05-20T08:07:03.815Z,100988.42
2023-05-20T08:09:34.578Z,100985.35
2023-05-20T08:12:03.756Z,100984.73
2023-05-20T08:14:31.997Z,100981.82
2023-05-20T08:17:00.554Z,100979.96
2023-05-20T08:19:28.914Z,100981.86
2023-05-20T08:21:57.164Z,100977.25
2023-05-20T08:24:25.715Z,100976.79
2023-05-20T08:26:53.887Z,100974.84
2023-05-20T08:29:22.146Z,100975.75
2023-05-20T08:31:50.386Z,100973.42
2023-05-20T08:34:21.573Z,100976.08
2023-05-20T08:36:49.778Z,100974.59
2023-05-20T08:39:17.870Z,100975.27
2023-05-20T08:41:47.572Z,100968.02
2023-05-20T08:44:18.238Z,100973.80
2023-05-20T08:46:47.731Z,100969.84
2023-05-20T08:49:20.191Z,100968.81
2023-05-20T08:51:48.400Z,100969.28
2023-05-20T08:54:17.108Z,100970.30
2023-05-20T08:56:45.536Z,100971.42
2023-05-20T08:59:14.794Z,100971.84
2023-05-20T09:01:44.741Z,100968.77
2023-05-20T09:04:13.755Z,100966.73
2023-05-20T09:06:46.808Z,100967.02
2023-05-20T09:09:16.050Z,100967.06
2023-05-20T09:11:44.314Z,100964.05
2023-05-20T09:14:12.904Z,100963.30
2023-05-20T09:16:41.626Z,100963.67
2023-05-20T09:19:10.956Z,100964.01
2023-05-20T09:21:41.906Z,100964.48
2023-05-20T09:24:10.605Z,100960.38
2023-05-20T09:26:38.994Z,100966.89
2023-05-20T09:29:07.586Z,100965.23
2023-05-20T09:31:37.128Z,100967.16
2023-05-20T09:34:05.802Z,100966.71
2023-05-20T09:36:35.629Z,100969.70
2023-05-20T09:39:04.518Z,100968.91
2023-05-20T09:41:56.001Z,100961.52
2023-05-20T09:44:24.859Z,100963.13
2023-05-20T09:46:54.405Z,100957.88
2023-05-20T09:49:25.317Z,100960.17
2023-05-20T09:51:54.052Z,100960.23
2023-05-20T09:54:23.785Z,100961.64
2023-05-20T09:56:53.909Z,100958.90
2023-05-20T09:59:23.822Z,100955.45
2023-05-20T10:01:51.989Z,100957.80
2023-05-20T10:04:21.568Z,100958.29
2023-05-20T10:07:33.972Z,100957.56
2023-05-20T10:10:31.012Z,100960.33
2023-05-20T10:13:13.363Z,100957.29
2023-05-20T10:16:10.032Z,100960.27
2023-05-20T10:18:59.182Z,100967.31
2023-05-20T10:21:27.763Z,100969.27
2023-05-20T10:24:06.687Z,100967.71
2023-05-20T10:26:41.045Z,100963.77
2023-05-20T10:29:20.012Z,100964.64
2023-05-20T10:31:53.158Z,100961.53
2023-05-20T10:34:23.527Z,100960.56
2023-05-20T10:36:59.491Z,100966.73
2023-05-20T10:39:32.413Z,100966.39
2023-05-20T10:42:11.605Z,100967.51
2023-05-20T10:44:45.597Z,100969.05
2023-05-20T10:49:46.851Z,100965.42
2023-05-20T10:52:17.097Z,100968.16
2023-05-20T10:54:55.834Z,100962.22
2023-05-20T10:57:27.102Z,100958.75
2023-05-20T10:59:58.817Z,100954.70
2023-05-20T11:02:28.019Z,100956.52
2023-05-20T11:04:57.100Z,100952.89
2023-05-20T11:07:31.256Z,100947.56
2023-05-20T11:09:59.809Z,100943.13
2023-05-20T11:12:28.475Z,100944.04
2023-05-20T11:14:59.869Z,100934.88
2023-05-20T11:17:28.423Z,100939.55
2023-05-20T11:19:59.761Z,100944.91
2023-05-20T11:22:28.027Z,100946.23
2023-05-20T11:24:56.443Z,100948.30
2023-05-20T11:27:24.941Z,100940.55
2023-05-20T11:29:53.359Z,100938.92
2023-05-20T11:32:21.606Z,100935.88
2023-05-20T11:34:54.375Z,100934.02
2023-05-20T11:37:24.395Z,100932.48
2023-05-20T11:40:07.233Z,100934.15
2023-05-20T11:42:37.014Z,100933.17
2023-05-20T11:45:05.655Z,100935.08
2023-05-20T11:47:34.446Z,100935.63
2023-05-20T11:50:04.251Z,100942.48
2023-05-20T11:52:34.518Z,100939.38
2023-05-20T11:55:03.978Z,100944.27
2023-05-20T11:57:32.162Z,100951.02
2023-05-20T12:00:01.009Z,100948.14
2023-05-20T12:02:29.472Z,100951.08
2023-05-20T12:04:58.147Z,100952.19
2023-05-20T12:07:26.642Z,100950.07
2023-05-20T12:09:54.844Z,100945.91
2023-05-20T12:12:22.969Z,100943.73
2023-05-20T12:14:51.393Z,100940.75
2023-05-20T12:17:19.786Z,100935.45
2023-05-20T12:19:49.643Z,100935.59
2023-05-20T12:22:17.920Z,100933.80
2023-05-20T12:24:46.038Z,100935.67
2023-05-20T12:27:14.361Z,100934.02
2023-05-20T12:29:42.835Z,100936.41
2023-05-20T12:32:11.191Z,100938.60
2023-05-20T12:34:39.661Z,100937.31
2023-05-20T12:37:08.000Z,100931.79
2023-05-20T12:39:36.261Z,100928.73
2023-05-20T12:42:04.587Z,100922.88
2023-05-20T12:44:33.389Z,100933.15
2023-05-20T12:47:01.570Z,100934.20
2023-05-20T12:49:29.982Z,100931.27
2023-05-20T12:51:59.888Z,100935.70
2023-05-20T12:54:29.856Z,100933.73
2023-05-20T12:56:58.848Z,100930.02
2023-05-20T12:59:27.074Z,100932.56
2023-05-20T13:01:55.398Z,100930.52
2023-05-20T13:04:24.100Z,100928.20
2023-05-20T13:06:52.710Z,100925.61
2023-05-20T13:09:21.159Z,100927.02
2023-05-20T13:11:49.980Z,100929.41
2023-05-20T13:14:18.365Z,100928.29
2023-05-20T13:16:46.954Z,100928.95
2023-05-20T13:19:16.287Z,100925.60
2023-05-20T13:21:44.506Z,100933.70
2023-05-20T13:24:12.757Z,100933.80
2023-05-20T13:26:41.170Z,100935.72
2023-05-20T13:29:09.552Z,100936.07
2023-05-20T13:31:38.409Z,100927.63
2023-05-20T13:34:06.804Z,100930.98
2023-05-20T13:36:34.891Z,100926.80
2023-05-20T13:39:02.984Z,100919.13
2023-05-20T13:41:31.301Z,100914.34
2023-05-20T13:43:59.523Z,100911.65
2023-05-20T13:46:27.790Z,100914.02
2023-05-20T13:48:56.118Z,100915.78
2023-05-20T13:51:24.371Z,100917.75
2023-05-20T13:53:52.464Z,100921.48
2023-05-20T13:56:21.088Z,100926.61
2023-05-20T13:58:49.327Z,100928.48
2023-05-20T14:01:17.550Z,100930.73
2023-05-20T14:03:46.012Z,100931.29
2023-05-20T14:06:14.512Z,100926.93
2023-05-20T14:08:42.823Z,100926.32
2023-05-20T14:11:11.496Z,100920.09
2023-05-20T14:13:41.142Z,100915.77
2023-05-20T14:16:09.289Z,100910.00
2023-05-20T14:18:38.009Z,100912.32
2023-05-20T14:21:06.400Z,100916.14
2023-05-20T14:23:34.490Z,100912.36
2023-05-20T14:26:02.905Z,100906.94
2023-05-20T14:28:31.078Z,100906.96
2023-05-20T14:30:59.224Z,100899.89
2023-05-20T14:33:28.369Z,100900.84
2023-05-20T14:35:57.181Z,100899.50
2023-05-20T14:38:25.393Z,100899.81
2023-05-20T14:40:53.878Z,100899.13
2023-05-20T14:43:22.255Z,100897.98
2023-05-20T14:45:50.670Z,100889.53
2023-05-20T14:48:19.109Z,100892.69
2023-05-20T14:50:48.992Z,100888.20
2023-05-20T14:53:18.141Z,100888.67
2023-05-20T14:55:48.096Z,100887.38
2023-05-20T14:58:16.377Z,100888.48
2023-05-20T15:00:44.604Z,100888.20
2023-05-20T15:03:12.966Z,100890.04
2023-05-20T15:05:41.335Z,100897.40
2023-05-20T15:08:09.571Z,100888.58
2023-05-20T15:10:38.345Z,100889.58
2023-05-20T15:13:06.741Z,100889.19
2023-05-20T15:15:34.921Z,100883.38
2023-05-20T15:18:03.386Z,100880.92
2023-05-20T15:20:31.663Z,100880.73
2023-05-20T15:23:01.058Z,100879.87
2023-05-20T15:25:29.441Z,100882.83
2023-05-20T15:27:57.604Z,100884.59
2023-05-20T15:30:25.763Z,100886.88
2023-05-20T15:32:54.271Z,100888.93
2023-05-20T15:35:22.624Z,100888.20
2023-05-20T15:37:50.825Z,100894.08
2023-05-20T15:40:19.103Z,100893.50
2023-05-20T15:42:47.265Z,100892.64
2023-05-20T15:45:15.597Z,100891.98
2023-05-20T15:47:44.740Z,100890.84
2023-05-20T15:50:13.032Z,100897.61
2023-05-20T15:52:41.938Z,100899.04
2023-05-20T15:55:10.589Z,100893.87
2023-05-20T15:57:38.880Z,100890.98
2023-05-20T16:00:07.744Z,100892.13
2023-05-20T16:02:36.795Z,100892.02
2023-05-20T16:05:05.762Z,100889.98
2023-05-20T16:07:33.876Z,100895.50
2023-05-20T16:10:02.463Z,100894.16
2023-05-20T16:12:30.715Z,100897.05
2023-05-20T16:14:58.949Z,100908.02
2023-05-20T16:17:27.493Z,100911.00
2023-05-20T16:19:55.732Z,100920.23
2023-05-20T16:22:24.018Z,100931.05
2023-05-20T16:24:52.654Z,100934.77
2023-05-20T16:27:20.883Z,100937.02
2023-05-20T16:29:50.429Z,100938.50
2023-05-20T16:32:18.966Z,100934.55
2023-05-20T16:34:47.170Z,100935.08
2023-05-20T16:37:15.720Z,100926.52
2023-05-20T16:39:44.462Z,100922.37
2023-05-20T16:42:12.570Z,100918.20
2023-05-20T16:44:40.754Z,100918.30
2023-05-20T16:47:09.460Z,100914.22
2023-05-20T16:49:37.880Z,100912.50
2023-05-20T16:52:06.835Z,100910.02
2023-05-20T16:54:37.953Z,100905.02
2023-05-20T16:57:06.139Z,100903.09
2023-05-20T16:59:35.304Z,100906.01
2023-05-20T17:02:04.370Z,100900.02
2023-05-20T17:04:33.210Z,100898.52
2023-05-20T17:07:01.879Z,100896.45
2023-05-20T17:09:31.277Z,100900.83
2023-05-20T17:12:01.466Z,100896.76
2023-05-20T17:14:29.881Z,100893.02
2023-05-20T17:16:58.547Z,100887.13
2023-05-20T17:19:26.921Z,100884.34
2023-05-20T17:21:55.225Z,100877.64
2023-05-20T17:24:23.565Z,100867.82
2023-05-20T17:26:52.047Z,100863.52
2023-05-20T17:29:20.460Z,100853.99
2023-05-20T17:31:49.243Z,100846.09
2023-05-20T17:34:19.482Z,100841.41
2023-05-20T17:36:48.529Z,100838.86
2023-05-20T17:39:18.236Z,100828.57
2023-05-20T17:41:46.521Z,100825.84
2023-05-20T17:44:15.290Z,100823.65
2023-05-20T17:46:44.235Z,100809.63
2023-05-20T17:49:13.338Z,100804.57
2023-05-20T17:51:41.935Z,100801.46
2023-05-20T17:54:12.303Z,100794.79
2023-05-20T17:56:40.951Z,100795.98
2023-05-20T17:59:09.006Z,100792.72
2023-05-20T18:01:37.550Z,100793.04
2023-05-20T18:04:06.441Z,100788.73
2023-05-20T18:06:36.452Z,100789.08
2023-05-20T18:09:05.187Z,100785.30
2023-05-20T18:11:34.257Z,100782.94
2023-05-20T18:14:02.804Z,100786.90
2023-05-20T18:16:31.705Z,100789.41
2023-05-20T18:18:59.982Z,100786.20
2023-05-20T18:21:28.367Z,100782.27
2023-05-20T18:23:58.184Z,100789.63
2023-05-20T18:26:27.759Z,100791.45
2023-05-20T18:28:56.013Z,100788.81
2023-05-20T18:31:24.550Z,100793.83
2023-05-20T18:33:52.893Z,100786.17
2023-05-20T18:36:21.663Z,100790.89
2023-05-20T18:38:49.959Z,100790.61
2023-05-20T18:41:18.665Z,100796.21
2023-05-20T18:43:46.920Z,100800.02
2023-05-20T18:46:16.187Z,100799.13
2023-05-20T18:48:44.861Z,100800.40
2023-05-20T18:51:13.057Z,100803.15
2023-05-20T18:53:41.412Z,100802.29
2023-05-20T18:56:09.551Z,100802.11
2023-05-20T18:58:38.148Z,100797.85
2023-05-20T19:01:07.052Z,100800.75
2023-05-20T19:03:38.659Z,100796.81
2023-05-20T19:06:07.156Z,100800.79
2023-05-20T19:08:35.365Z,100804.57
2023-05-20T19:11:03.633Z,100806.40
2023-05-20T19:13:31.957Z,100813.80
2023-05-20T19:16:00.733Z,100816.16
2023-05-20T19:18:29.190Z,100820.84
2023-05-20T19:20:57.493Z,100821.34
2023-05-20T19:23:25.689Z,100825.45
2023-05-20T19:25:54.150Z,100827.59
2023-05-20T19:28:22.473Z,100824.38
2023-05-20T19:30:50.819Z,100829.02
2023-05-20T19:33:20.931Z,100822.03
2023-05-20T19:35:49.395Z,100826.78
2023-05-20T19:38:18.393Z,100830.39
2023-05-20T19:40:46.914Z,100831.67
2023-05-20T19:43:15.362Z,100831.36
2023-05-20T19:45:43.787Z,100830.88
2023-05-20T19:48:12.319Z,100832.11
2023-05-20T19:50:42.912Z,100830.86
2023-05-20T19:53:11.130Z,100830.86
2023-05-20T19:55:40.597Z,100830.67
2023-05-20T19:58:09.434Z,100832.44
2023-05-20T20:00:37.951Z,100835.45
2023-05-20T20:03:07.694Z,100838.33
2023-05-20T20:05:36.134Z,100840.11
2023-05-20T20:08:04.867Z,100844.22
2023-05-20T20:10:33.093Z,100846.00
2023-05-20T20:13:01.829Z,100847.09
2023-05-20T20:15:30.182Z,100849.77
2023-05-20T20:17:58.919Z,100851.40
2023-05-20T20:20:27.197Z,100849.79
2023-05-20T20:22:55.397Z,100851.80
2023-05-20T20:25:23.523Z,100854.66
2023-05-20T20:27:52.108Z,100857.02
2023-05-20T20:30:20.535Z,100857.93
2023-05-20T20:32:48.739Z,100856.89
2023-05-20T20:35:17.177Z,100858.89
2023-05-20T20:37:45.443Z,100855.52
2023-05-20T20:40:14.136Z,100855.36
2023-05-20T20:42:43.230Z,100854.13
2023-05-20T20:45:12.157Z,100858.45
2023-05-20T20:47:40.506Z,100861.16
2023-05-20T20:50:14.770Z,100858.88
2023-05-20T20:52:43.205Z,100858.89
2023-05-20T20:55:11.474Z,100860.02
2023-05-20T20:57:40.162Z,100858.44
2023-05-20T21:00:08.858Z,100857.00
2023-05-20T21:02:37.254Z,100854.69
2023-05-20T21:05:05.917Z,100861.34
2023-05-20T21:07:34.502Z,100860.27
2023-05-20T21:10:02.696Z,100860.32
2023-05-20T21:12:31.020Z,100862.50
2023-05-20T21:14:59.201Z,100861.09
2023-05-20T21:17:28.026Z,100855.38
2023-05-20T21:19:56.371Z,100854.69
2023-05-20T21:22:24.618Z,100857.21
2023-05-20T21:24:52.893Z,100859.55
2023-05-20T21:27:21.307Z,100857.97
2023-05-20T21:29:49.536Z,100858.17
2023-05-20T21:32:17.801Z,100861.21
2023-05-20T21:34:46.214Z,100861.24
2023-05-20T21:37:14.469Z,100861.97
2023-05-20T21:39:42.792Z,100863.42
2023-05-20T21:42:11.298Z,100865.42
2023-05-20T21:44:40.002Z,100863.45
2023-05-20T21:47:08.145Z,100859.36
2023-05-20T21:49:36.402Z,100858.48
2023-05-20T21:52:04.820Z,100856.16
2023-05-20T21:54:33.020Z,100853.84
2023-05-20T21:57:01.477Z,100849.73
2023-05-20T21:59:29.950Z,100849.58
2023-05-20T22:01:58.449Z,100846.53
2023-05-20T22:04:27.309Z,100846.20
2023-05-20T22:06:56.394Z,100847.28
2023-05-20T22:09:25.048Z,100844.43
2023-05-20T22:11:55.236Z,100845.14
2023-05-20T22:14:23.350Z,100843.38
2023-05-20T22:16:51.557Z,100837.48
2023-05-20T22:19:19.833Z,100836.42
2023-05-20T22:21:50.523Z,100833.77
2023-05-20T22:24:19.533Z,100831.27
2023-05-20T22:26:47.825Z,100830.20
2023-05-20T22:29:17.553Z,100832.34
2023-05-20T22:31:46.222Z,100830.05
2023-05-20T22:34:14.758Z,100827.02
2023-05-20T22:36:42.917Z,100826.85
2023-05-20T22:39:11.374Z,100829.90
2023-05-20T22:41:39.585Z,100828.81
2023-05-20T22:44:07.784Z,100832.55
2023-05-20T22:46:36.120Z,100828.27
2023-05-20T22:49:04.330Z,100832.73
2023-05-20T22:51:32.830Z,100826.33
2023-05-20T22:54:01.012Z,100826.86
2023-05-20T22:56:29.276Z,100824.55
2023-05-20T22:58:57.340Z,100828.48
2023-05-20T23:01:25.808Z,100824.40
2023-05-20T23:03:54.217Z,100829.23
2023-05-20T23:06:22.662Z,100827.80
2023-05-20T23:08:51.151Z,100829.44
2023-05-20T23:11:19.705Z,100830.86
2023-05-20T23:13:47.907Z,100826.42
2023-05-20T23:16:16.151Z,100828.55
2023-05-20T23:18:44.480Z,100824.63
2023-05-20T23:21:13.455Z,100818.94
2023-05-20T23:23:41.606Z,100821.25
2023-05-20T23:26:10.002Z,100820.20
2023-05-20T23:28:39.678Z,100814.13
2023-05-20T23:31:08.164Z,100816.48
2023-05-20T23:33:36.674Z,100813.80
2023-05-20T23:36:05.359Z,100813.10
2023-05-20T23:38:33.528Z,100814.54
2023-05-20T23:41:02.303Z,100811.15
2023-05-20T23:43:30.570Z,100807.60
2023-05-20T23:45:58.781Z,100804.74
2023-05-20T23:48:27.545Z,100800.65
2023-05-20T23:50:57.544Z,100799.95
2023-05-20T23:53:27.481Z,100797.27
2023-05-20T23:55:55.915Z,100795.49
2023-05-20T23:58:24.190Z,100796.76
